createdAt,value
2024-04-17T00:00:33.181Z,98898.21
2024-04-17T00:03:22.935Z,98897.07
2024-04-17T00:05:50.950Z,98901.33
2024-04-17T00:08:18.818Z,98899.17
2024-04-17T00:10:46.934Z,98902.88
2024-04-17T00:13:15.059Z,98910.05
2024-04-17T00:15:42.734Z,98908.73
2024-04-17T00:18:10.498Z,98914.08
2024-04-17T00:20:38.453Z,98911.23
2024-04-17T00:23:06.165Z,98910.14
2024-04-17T00:25:33.916Z,98915.04
2024-04-17T00:28:01.828Z,98914.48
2024-04-17T00:30:29.848Z,98911.09
2024-04-17T00:32:57.738Z,98916.92
2024-04-17T00:35:25.542Z,98912.48
2024-04-17T00:37:53.462Z,98913.83
2024-04-17T00:40:21.626Z,98911.30
2024-04-17T00:42:50.244Z,98914.42
2024-04-17T00:45:17.945Z,98911.70
2024-04-17T00:47:45.872Z,98912.98
2024-04-17T00:50:14.492Z,98907.20
2024-04-17T00:52:42.778Z,98908.95
2024-04-17T00:55:11.424Z,98908.97
2024-04-17T00:57:40.330Z,98914.74
2024-04-17T01:00:08.733Z,98909.70
2024-04-17T01:02:36.449Z,98906.85
2024-04-17T01:05:04.387Z,98914.85
2024-04-17T01:07:33.171Z,98915.30
2024-04-17T01:10:00.914Z,98914.11
2024-04-17T01:12:29.303Z,98913.27
2024-04-17T01:14:56.924Z,98912.20
2024-04-17T01:17:24.787Z,98915.38
2024-04-17T01:19:52.879Z,98921.02
2024-04-17T01:22:20.666Z,98922.48
2024-04-17T01:24:48.534Z,98920.78
2024-04-17T01:27:16.445Z,98923.21
2024-04-17T01:29:44.544Z,98920.19
2024-04-17T01:32:12.330Z,98923.52
2024-04-17T01:34:40.246Z,98924.75
2024-04-17T01:37:08.152Z,98923.45
2024-04-17T01:39:35.901Z,98926.54
2024-04-17T01:42:03.985Z,98926.81
2024-04-17T01:44:31.868Z,98930.13
2024-04-17T01:46:59.821Z,98928.48
2024-04-17T01:49:27.799Z,98930.92
2024-04-17T01:51:55.544Z,98931.76
2024-04-17T01:54:23.302Z,98936.84
2024-04-17T01:56:52.834Z,98934.85
2024-04-17T01:59:20.701Z,98931.98
2024-04-17T02:01:48.536Z,98935.26
2024-04-17T02:04:16.254Z,98942.95
2024-04-17T02:06:44.421Z,98945.80
2024-04-17T02:09:12.195Z,98951.17
2024-04-17T02:11:40.085Z,98951.90
2024-04-17T02:14:07.954Z,98957.83
2024-04-17T02:16:35.693Z,98959.73
2024-04-17T02:19:03.575Z,98961.86
2024-04-17T02:21:31.637Z,98961.42
2024-04-17T02:23:59.444Z,98962.60
2024-04-17T02:26:27.261Z,98966.74
2024-04-17T02:28:55.103Z,98967.86
2024-04-17T02:31:22.740Z,98973.13
2024-04-17T02:33:50.447Z,98973.75
2024-04-17T02:36:18.373Z,98972.08
2024-04-17T02:38:46.135Z,98971.04
2024-04-17T02:41:14.034Z,98972.50
2024-04-17T02:43:41.789Z,98975.58
2024-04-17T02:46:09.527Z,98974.50
2024-04-17T02:48:37.494Z,98978.24
2024-04-17T02:51:05.647Z,98977.48
2024-04-17T02:53:33.303Z,98981.65
2024-04-17T02:56:00.969Z,98984.39
2024-04-17T02:58:28.885Z,98988.62
2024-04-17T03:00:56.751Z,98994.52
2024-04-17T03:03:24.875Z,98994.42
2024-04-17T03:05:52.787Z,98995.14
2024-04-17T03:08:20.442Z,98998.46
2024-04-17T03:10:48.342Z,98999.11
2024-04-17T03:13:16.235Z,99004.95
2024-04-17T03:15:46.800Z,99005.40
2024-04-17T03:18:15.267Z,99003.61
2024-04-17T03:20:43.112Z,99008.08
2024-04-17T03:23:11.515Z,99004.11
2024-04-17T03:25:39.450Z,99006.45
2024-04-17T03:28:07.350Z,99005.73
2024-04-17T03:30:35.252Z,99009.90
2024-04-17T03:33:03.210Z,99014.00
2024-04-17T03:35:30.874Z,99015.24
2024-04-17T03:37:58.786Z,99012.49
2024-04-17T03:40:26.629Z,99013.77
2024-04-17T03:42:54.358Z,99011.17
2024-04-17T03:45:22.218Z,99013.98
2024-04-17T03:47:50.681Z,99017.65
2024-04-17T03:50:18.751Z,99020.73
2024-04-17T03:52:46.623Z,99020.61
2024-04-17T03:55:14.914Z,99029.33
2024-04-17T03:57:42.743Z,99033.62
2024-04-17T04:00:11.272Z,99036.80
2024-04-17T04:02:39.336Z,99035.23
2024-04-17T04:05:07.366Z,99042.36
2024-04-17T04:07:35.369Z,99039.09
2024-04-17T04:10:03.245Z,99044.73
2024-04-17T04:12:31.122Z,99048.52
2024-04-17T04:14:59.021Z,99053.80
2024-04-17T04:17:26.852Z,99053.36
2024-04-17T04:19:54.791Z,99058.45
2024-04-17T04:22:23.024Z,99056.13
2024-04-17T04:24:50.913Z,99061.15
2024-04-17T04:27:18.683Z,99062.05
2024-04-17T04:29:46.643Z,99068.11
2024-04-17T04:32:14.573Z,99069.42
2024-04-17T04:34:42.901Z,99071.08
2024-04-17T04:37:10.731Z,99077.16
2024-04-17T04:39:38.483Z,99082.36
2024-04-17T04:42:07.486Z,99083.61
2024-04-17T04:44:35.485Z,99085.84
2024-04-17T04:47:03.733Z,99083.15
2024-04-17T04:49:31.490Z,99084.17
2024-04-17T04:51:59.459Z,99085.48
2024-04-17T04:54:27.272Z,99089.27
2024-04-17T04:56:54.976Z,99091.10
2024-04-17T04:59:22.924Z,99084.25
2024-04-17T05:01:50.784Z,99089.61
2024-04-17T05:04:18.870Z,99091.10
2024-04-17T05:06:47.492Z,99093.99
2024-04-17T05:09:15.338Z,99094.91
2024-04-17T05:11:43.327Z,99099.37
2024-04-17T05:14:11.147Z,99099.85
2024-04-17T05:16:39.090Z,99107.00
2024-04-17T05:19:06.773Z,99106.33
2024-04-17T05:21:34.671Z,99106.79
2024-04-17T05:24:02.890Z,99107.02
2024-04-17T05:26:30.958Z,99103.71
2024-04-17T05:28:59.430Z,99102.08
2024-04-17T05:31:27.988Z,99104.95
2024-04-17T05:33:55.927Z,99104.44
2024-04-17T05:36:23.648Z,99110.67
2024-04-17T05:38:51.841Z,99111.92
2024-04-17T05:41:19.756Z,99108.89
2024-04-17T05:43:47.732Z,99115.16
2024-04-17T05:46:15.457Z,99118.80
2024-04-17T05:48:43.287Z,99117.06
2024-04-17T05:51:11.569Z,99114.94
2024-04-17T05:53:39.753Z,99116.69
2024-04-17T05:56:07.959Z,99118.51
2024-04-17T05:58:35.933Z,99119.94
2024-04-17T06:01:04.520Z,99122.10
2024-04-17T06:03:32.291Z,99120.38
2024-04-17T06:06:00.092Z,99123.69
2024-04-17T06:08:27.926Z,99122.39
2024-04-17T06:10:55.891Z,99125.56
2024-04-17T06:13:23.730Z,99129.77
2024-04-17T06:15:51.440Z,99131.11
2024-04-17T06:18:19.343Z,99132.30
2024-04-17T06:20:47.027Z,99134.84
2024-04-17T06:23:14.823Z,99136.92
2024-04-17T06:25:46.291Z,99137.65
2024-04-17T06:28:14.326Z,99141.84
2024-04-17T06:30:42.385Z,99143.73
2024-04-17T06:33:10.831Z,99143.38
2024-04-17T06:35:38.591Z,99146.45
2024-04-17T06:38:06.447Z,99147.96
2024-04-17T06:40:34.382Z,99146.16
2024-04-17T06:43:02.366Z,99145.27
2024-04-17T06:45:30.351Z,99146.27
2024-04-17T06:47:58.341Z,99143.85
2024-04-17T06:50:26.274Z,99150.73
2024-04-17T06:52:54.336Z,99152.62
2024-04-17T06:55:22.149Z,99155.06
2024-04-17T06:57:49.925Z,99154.05
2024-04-17T07:00:17.605Z,99155.70
2024-04-17T07:02:51.849Z,99159.46
2024-04-17T07:05:23.244Z,99161.70
2024-04-17T07:07:51.012Z,99160.96
2024-04-17T07:10:19.021Z,99164.25
2024-04-17T07:12:46.794Z,99164.66
2024-04-17T07:15:14.761Z,99164.05
2024-04-17T07:17:42.633Z,99166.93
2024-04-17T07:20:10.480Z,99166.05
2024-04-17T07:22:38.291Z,99168.45
2024-04-17T07:25:06.122Z,99171.38
2024-04-17T07:27:33.912Z,99174.86
2024-04-17T07:30:01.761Z,99180.26
2024-04-17T07:32:29.649Z,99183.24
2024-04-17T07:34:58.968Z,99180.73
2024-04-17T07:37:28.697Z,99183.35
2024-04-17T07:39:56.485Z,99186.39
2024-04-17T07:42:24.350Z,99188.42
2024-04-17T07:44:52.077Z,99188.63
2024-04-17T07:47:20.434Z,99195.53
2024-04-17T07:49:48.368Z,99192.11
2024-04-17T07:52:16.230Z,99194.13
2024-04-17T07:54:44.086Z,99196.16
2024-04-17T07:57:12.013Z,99199.73
2024-04-17T07:59:40.206Z,99204.11
2024-04-17T08:02:07.965Z,99205.34
2024-04-17T08:04:36.011Z,99207.51
2024-04-17T08:07:03.972Z,99211.73
2024-04-17T08:09:31.776Z,99214.08
2024-04-17T08:11:59.781Z,99214.08
2024-04-17T08:14:27.654Z,99215.61
2024-04-17T08:16:55.536Z,99223.74
2024-04-17T08:19:23.613Z,99222.18
2024-04-17T08:21:51.579Z,99228.27
2024-04-17T08:24:21.130Z,99233.63
2024-04-17T08:26:52.633Z,99236.92
2024-04-17T08:29:20.447Z,99238.55
2024-04-17T08:31:49.266Z,99244.53
2024-04-17T08:34:17.224Z,99250.64
2024-04-17T08:36:45.844Z,99248.11
2024-04-17T08:39:13.669Z,99252.74
2024-04-17T08:41:49.595Z,99254.36
2024-04-17T08:44:20.860Z,99255.32
2024-04-17T08:46:50.926Z,99262.86
2024-04-17T08:49:20.605Z,99265.62
2024-04-17T08:51:49.707Z,99268.86
2024-04-17T08:54:17.683Z,99271.33
2024-04-17T08:56:45.765Z,99277.85
2024-04-17T08:59:13.634Z,99281.96
2024-04-17T09:01:42.913Z,99282.96
2024-04-17T09:04:12.302Z,99284.74
2024-04-17T09:06:41.391Z,99287.05
2024-04-17T09:09:11.034Z,99291.72
2024-04-17T09:11:41.411Z,99290.52
2024-04-17T09:14:09.449Z,99292.00
2024-04-17T09:16:37.857Z,99294.86
2024-04-17T09:19:08.423Z,99292.79
2024-04-17T09:21:40.506Z,99291.02
2024-04-17T09:24:08.928Z,99290.90
2024-04-17T09:26:37.852Z,99294.91
2024-04-17T09:29:05.802Z,99296.46
2024-04-17T09:31:33.743Z,99301.59
2024-04-17T09:34:02.366Z,99300.66
2024-04-17T09:36:30.295Z,99303.23
2024-04-17T09:38:58.020Z,99304.73
2024-04-17T09:41:29.379Z,99311.73
2024-04-17T09:43:58.360Z,99315.62
2024-04-17T09:46:28.349Z,99317.66
2024-04-17T09:48:58.525Z,99315.98
2024-04-17T09:51:27.915Z,99321.04
2024-04-17T09:54:00.370Z,99325.91
2024-04-17T09:56:29.209Z,99325.34
2024-04-17T09:59:06.627Z,99323.82
2024-04-17T10:01:38.142Z,99321.29
2024-04-17T10:04:12.297Z,99322.27
2024-04-17T10:06:45.502Z,99326.94
2024-04-17T10:09:16.702Z,99331.18
2024-04-17T10:11:46.624Z,99329.66
2024-04-17T10:14:14.633Z,99332.27
2024-04-17T10:16:42.895Z,99332.34
2024-04-17T10:19:11.571Z,99336.27
2024-04-17T10:21:39.465Z,99336.43
2024-04-17T10:24:11.791Z,99341.39
2024-04-17T10:26:47.824Z,99336.15
2024-04-17T10:29:23.840Z,99339.80
2024-04-17T10:32:03.705Z,99343.05
2024-04-17T10:34:44.171Z,99346.52
2024-04-17T10:37:12.675Z,99354.18
2024-04-17T10:39:42.175Z,99352.79
2024-04-17T10:42:10.761Z,99358.23
2024-04-17T10:44:46.590Z,99360.17
2024-04-17T10:47:41.449Z,99360.71
2024-04-17T10:50:10.749Z,99368.19
2024-04-17T10:52:40.584Z,99367.17
2024-04-17T10:55:08.743Z,99373.55
2024-04-17T10:57:36.626Z,99372.68
2024-04-17T11:00:05.535Z,99374.44
2024-04-17T11:02:33.507Z,99376.39
2024-04-17T11:05:02.728Z,99378.27
2024-04-17T11:07:31.618Z,99378.04
2024-04-17T11:09:59.527Z,99380.13
2024-04-17T11:12:27.566Z,99378.64
2024-04-17T11:15:02.058Z,99389.80
2024-04-17T11:17:30.549Z,99388.98
2024-04-17T11:19:58.884Z,99391.08
2024-04-17T11:22:26.718Z,99391.47
2024-04-17T11:24:58.633Z,99392.36
2024-04-17T11:27:26.810Z,99392.52
2024-04-17T11:29:54.807Z,99397.93
2024-04-17T11:32:23.335Z,99394.31
2024-04-17T11:34:51.192Z,99397.71
2024-04-17T11:37:19.038Z,99398.84
2024-04-17T11:39:49.006Z,99402.52
2024-04-17T11:42:17.611Z,99403.13
2024-04-17T11:44:46.252Z,99407.35
2024-04-17T11:47:16.925Z,99409.63
2024-04-17T11:49:45.367Z,99415.41
2024-04-17T11:52:14.198Z,99416.98
2024-04-17T11:54:44.512Z,99416.98
2024-04-17T11:57:15.066Z,99420.66
2024-04-17T11:59:49.265Z,99424.91
2024-04-17T12:02:17.351Z,99421.83
2024-04-17T12:04:45.905Z,99423.36
2024-04-17T12:07:14.129Z,99426.27
2024-04-17T12:09:48.249Z,99426.02
2024-04-17T12:12:19.394Z,99423.92
2024-04-17T12:14:47.192Z,99422.41
2024-04-17T12:17:15.231Z,99419.96
2024-04-17T12:19:43.198Z,99419.02
2024-04-17T12:22:11.111Z,99420.14
2024-04-17T12:24:57.497Z,99426.54
2024-04-17T12:27:25.174Z,99429.45
2024-04-17T12:29:53.059Z,99430.81
2024-04-17T12:32:20.912Z,99436.20
2024-04-17T12:34:49.112Z,99438.05
2024-04-17T12:37:17.109Z,99436.84
2024-04-17T12:39:44.922Z,99435.43
2024-04-17T12:42:14.419Z,99434.70
2024-04-17T12:44:42.750Z,99434.17
2024-04-17T12:47:10.951Z,99436.84
2024-04-17T12:49:39.176Z,99434.70
2024-04-17T12:52:07.354Z,99440.64
2024-04-17T12:54:35.262Z,99442.13
2024-04-17T12:57:03.136Z,99442.30
2024-04-17T12:59:33.054Z,99445.23
2024-04-17T13:02:01.786Z,99444.18
2024-04-17T13:04:29.945Z,99441.84
2024-04-17T13:06:57.913Z,99444.80
2024-04-17T13:09:25.872Z,99438.91
2024-04-17T13:11:57.024Z,99436.86
2024-04-17T13:14:25.723Z,99439.95
2024-04-17T13:16:53.912Z,99443.43
2024-04-17T13:19:21.941Z,99440.68
2024-04-17T13:21:49.810Z,99437.33
2024-04-17T13:24:18.705Z,99436.83
2024-04-17T13:26:47.585Z,99438.02
2024-04-17T13:29:15.330Z,99436.05
2024-04-17T13:31:43.271Z,99431.58
2024-04-17T13:34:11.203Z,99428.64
2024-04-17T13:36:39.544Z,99421.56
2024-04-17T13:39:08.506Z,99417.98
2024-04-17T13:41:37.061Z,99421.33
2024-04-17T13:44:05.279Z,99423.71
2024-04-17T13:46:33.704Z,99422.31
2024-04-17T13:49:01.876Z,99422.20
2024-04-17T13:51:29.766Z,99418.54
2024-04-17T13:53:57.943Z,99412.20
2024-04-17T13:56:28.825Z,99412.58
2024-04-17T13:58:58.594Z,99411.08
2024-04-17T14:01:26.776Z,99409.45
2024-04-17T14:03:54.536Z,99413.32
2024-04-17T14:06:22.183Z,99417.39
2024-04-17T14:08:49.963Z,99416.52
2024-04-17T14:11:18.219Z,99419.09
2024-04-17T14:13:46.101Z,99424.60
2024-04-17T14:16:13.874Z,99426.48
2024-04-17T14:18:41.803Z,99420.27
2024-04-17T14:21:16.021Z,99424.41
2024-04-17T14:23:44.951Z,99420.52
2024-04-17T14:26:12.789Z,99420.06
2024-04-17T14:28:40.732Z,99412.56
2024-04-17T14:31:08.891Z,99418.67
2024-04-17T14:33:37.655Z,99422.52
2024-04-17T14:36:07.158Z,99419.90
2024-04-17T14:38:38.671Z,99418.15
2024-04-17T14:41:09.184Z,99420.08
2024-04-17T14:43:37.329Z,99419.56
2024-04-17T14:46:06.166Z,99415.64
2024-04-17T14:48:35.254Z,99416.46
2024-04-17T14:51:06.264Z,99416.65
2024-04-17T14:53:36.578Z,99420.94
2024-04-17T14:56:07.433Z,99418.71
2024-04-17T14:58:40.353Z,99420.11
2024-04-17T15:01:09.200Z,99415.94
2024-04-17T15:03:37.761Z,99416.73
2024-04-17T15:06:13.143Z,99421.05
2024-04-17T15:08:42.778Z,99421.45
2024-04-17T15:11:13.306Z,99420.27
2024-04-17T15:13:43.394Z,99420.98
2024-04-17T15:16:15.639Z,99419.85
2024-04-17T15:18:43.878Z,99419.05
2024-04-17T15:21:14.033Z,99419.48
2024-04-17T15:23:45.996Z,99417.65
2024-04-17T15:26:18.835Z,99423.70
2024-04-17T15:28:48.242Z,99420.00
2024-04-17T15:31:18.828Z,99417.27
2024-04-17T15:33:53.436Z,99418.94
2024-04-17T15:36:24.758Z,99418.47
2024-04-17T15:38:57.532Z,99417.07
2024-04-17T15:41:25.848Z,99418.98
2024-04-17T15:43:53.852Z,99421.45
2024-04-17T15:46:25.290Z,99422.47
2024-04-17T15:48:53.398Z,99423.12
2024-04-17T15:51:21.399Z,99426.33
2024-04-17T15:53:49.237Z,99430.18
2024-04-17T15:56:17.038Z,99429.35
2024-04-17T15:58:45.258Z,99429.90
2024-04-17T16:01:15.015Z,99431.36
2024-04-17T16:03:50.195Z,99434.81
2024-04-17T16:06:23.699Z,99433.10
2024-04-17T16:08:52.666Z,99429.20
2024-04-17T16:11:22.411Z,99430.65
2024-04-17T16:13:50.609Z,99431.17
2024-04-17T16:16:18.985Z,99431.94
2024-04-17T16:18:46.996Z,99432.77
2024-04-17T16:21:16.532Z,99432.98
2024-04-17T16:23:45.280Z,99431.84
2024-04-17T16:26:14.854Z,99435.05
2024-04-17T16:28:43.794Z,99434.31
2024-04-17T16:31:13.356Z,99434.54
2024-04-17T16:33:43.833Z,99434.55
2024-04-17T16:36:11.860Z,99436.93
2024-04-17T16:38:40.069Z,99440.10
2024-04-17T16:41:09.798Z,99441.15
2024-04-17T16:43:38.647Z,99443.45
2024-04-17T16:46:10.885Z,99452.23
2024-04-17T16:48:40.240Z,99452.69
2024-04-17T16:51:09.976Z,99456.30
2024-04-17T16:53:38.632Z,99456.96
2024-04-17T16:56:07.402Z,99459.34
2024-04-17T16:58:39.184Z,99458.66
2024-04-17T17:01:09.118Z,99459.34
2024-04-17T17:03:38.344Z,99462.00
2024-04-17T17:06:07.193Z,99465.61
2024-04-17T17:08:35.805Z,99465.52
2024-04-17T17:11:03.953Z,99466.29
2024-04-17T17:13:31.694Z,99468.98
2024-04-17T17:16:03.730Z,99470.77
2024-04-17T17:18:32.862Z,99469.53
2024-04-17T17:21:15.667Z,99472.54
2024-04-17T17:23:43.531Z,99474.80
2024-04-17T17:26:13.963Z,99476.02
2024-04-17T17:28:43.495Z,99479.10
2024-04-17T17:31:11.745Z,99483.52
2024-04-17T17:33:40.416Z,99485.05
2024-04-17T17:36:13.707Z,99488.28
2024-04-17T17:38:41.680Z,99488.99
2024-04-17T17:41:20.310Z,99492.01
2024-04-17T17:43:50.387Z,99493.36
2024-04-17T17:46:22.574Z,99494.15
2024-04-17T17:48:51.864Z,99498.57
2024-04-17T17:51:20.902Z,99499.73
2024-04-17T17:53:48.891Z,99503.98
2024-04-17T17:56:18.369Z,99509.08
2024-04-17T17:58:48.166Z,99512.38
2024-04-17T18:01:20.033Z,99518.41
2024-04-17T18:03:50.686Z,99523.95
2024-04-17T18:06:19.454Z,99524.23
2024-04-17T18:08:47.364Z,99526.95
2024-04-17T18:11:17.061Z,99531.36
2024-04-17T18:13:45.776Z,99533.02
2024-04-17T18:16:25.054Z,99538.70
2024-04-17T18:19:00.914Z,99540.44
2024-04-17T18:21:28.994Z,99546.30
2024-04-17T18:23:57.425Z,99545.67
2024-04-17T18:26:25.974Z,99546.39
2024-04-17T18:28:54.970Z,99550.48
2024-04-17T18:31:23.531Z,99551.05
2024-04-17T18:33:53.299Z,99552.25
2024-04-17T18:36:24.028Z,99557.20
2024-04-17T18:38:52.912Z,99560.92
2024-04-17T18:41:25.197Z,99563.80
2024-04-17T18:43:55.890Z,99566.27
2024-04-17T18:46:28.161Z,99568.98
2024-04-17T18:48:57.408Z,99572.36
2024-04-17T18:51:25.483Z,99573.11
2024-04-17T18:53:54.169Z,99572.28
2024-04-17T18:56:23.680Z,99573.58
2024-04-17T18:58:51.558Z,99580.11
2024-04-17T19:01:23.663Z,99583.63
2024-04-17T19:03:51.723Z,99584.41
2024-04-17T19:06:21.289Z,99582.82
2024-04-17T19:08:50.635Z,99587.78
2024-04-17T19:11:19.373Z,99589.35
2024-04-17T19:13:47.355Z,99590.50
2024-04-17T19:16:19.419Z,99591.15
2024-04-17T19:18:55.109Z,99586.63
2024-04-17T19:21:23.093Z,99589.10
2024-04-17T19:23:51.619Z,99593.65
2024-04-17T19:26:19.696Z,99593.18
2024-04-17T19:28:47.988Z,99595.03
2024-04-17T19:31:16.522Z,99593.11
2024-04-17T19:33:49.944Z,99592.54
2024-04-17T19:36:22.501Z,99593.94
2024-04-17T19:38:54.730Z,99596.20
2024-04-17T19:41:26.545Z,99593.48
2024-04-17T19:43:56.725Z,99593.13
2024-04-17T19:46:25.804Z,99594.98
2024-04-17T19:48:53.652Z,99596.04
2024-04-17T19:51:23.318Z,99592.68
2024-04-17T19:53:53.016Z,99594.54
2024-04-17T19:56:22.101Z,99600.05
2024-04-17T19:58:52.516Z,99599.36
2024-04-17T20:01:22.394Z,99605.66
2024-04-17T20:03:54.617Z,99606.39
2024-04-17T20:06:23.879Z,99608.65
2024-04-17T20:08:52.241Z,99607.72
2024-04-17T20:11:20.318Z,99610.79
2024-04-17T20:13:50.708Z,99608.80
2024-04-17T20:16:18.624Z,99609.60
2024-04-17T20:18:46.490Z,99606.39
2024-04-17T20:21:14.329Z,99608.20
2024-04-17T20:23:43.579Z,99607.96
2024-04-17T20:26:15.081Z,99607.45
2024-04-17T20:28:52.319Z,99608.86
2024-04-17T20:31:25.867Z,99607.00
2024-04-17T20:33:56.196Z,99608.72
2024-04-17T20:36:24.369Z,99608.49
2024-04-17T20:38:52.610Z,99607.39
2024-04-17T20:41:20.460Z,99609.67
2024-04-17T20:43:48.187Z,99613.19
2024-04-17T20:46:17.476Z,99611.25
2024-04-17T20:48:49.696Z,99611.29
2024-04-17T20:51:17.677Z,99612.78
2024-04-17T20:53:45.894Z,99612.96
2024-04-17T20:56:13.866Z,99615.80
2024-04-17T20:58:41.663Z,99615.70
2024-04-17T21:01:10.591Z,99614.09
2024-04-17T21:03:39.622Z,99619.44
2024-04-17T21:06:09.914Z,99624.08
2024-04-17T21:08:39.893Z,99621.70
2024-04-17T21:11:16.093Z,99621.53
2024-04-17T21:13:44.441Z,99626.40
2024-04-17T21:16:18.612Z,99628.80
2024-04-17T21:18:48.443Z,99629.02
2024-04-17T21:21:17.809Z,99627.20
2024-04-17T21:23:45.753Z,99629.81
2024-04-17T21:26:17.646Z,99632.46
2024-04-17T21:28:46.204Z,99634.27
2024-04-17T21:31:14.452Z,99634.04
2024-04-17T21:33:43.063Z,99636.70
2024-04-17T21:36:11.459Z,99642.05
2024-04-17T21:38:40.073Z,99642.55
2024-04-17T21:41:08.473Z,99644.59
2024-04-17T21:43:37.071Z,99647.25
2024-04-17T21:46:09.774Z,99643.27
2024-04-17T21:48:38.544Z,99638.62
2024-04-17T21:51:07.357Z,99639.91
2024-04-17T21:53:36.386Z,99645.08
2024-04-17T21:56:06.533Z,99647.17
2024-04-17T21:58:34.809Z,99650.80
2024-04-17T22:01:07.408Z,99651.33
2024-04-17T22:03:37.496Z,99653.80
2024-04-17T22:06:10.781Z,99656.57
2024-04-17T22:08:42.605Z,99658.31
2024-04-17T22:11:10.685Z,99659.12
2024-04-17T22:13:39.325Z,99658.16
2024-04-17T22:16:07.771Z,99660.86
2024-04-17T22:18:35.611Z,99662.52
2024-04-17T22:21:03.322Z,99664.77
2024-04-17T22:23:33.204Z,99665.09
2024-04-17T22:26:01.120Z,99664.17
2024-04-17T22:28:29.028Z,99663.95
2024-04-17T22:30:56.979Z,99665.00
2024-04-17T22:33:24.921Z,99665.38
2024-04-17T22:35:52.798Z,99665.40
2024-04-17T22:38:20.549Z,99663.89
2024-04-17T22:40:48.315Z,99660.84
2024-04-17T22:43:16.523Z,99660.52
2024-04-17T22:45:46.019Z,99659.95
2024-04-17T22:48:14.208Z,99667.39
2024-04-17T22:50:42.116Z,99664.41
2024-04-17T22:53:09.975Z,99670.14
2024-04-17T22:55:37.737Z,99669.58
2024-04-17T22:58:05.565Z,99669.02
2024-04-17T23:00:33.363Z,99672.38
2024-04-17T23:03:01.321Z,99677.39
2024-04-17T23:05:29.416Z,99677.45
2024-04-17T23:07:57.773Z,99677.09
2024-04-17T23:10:25.547Z,99674.41
2024-04-17T23:12:53.294Z,99670.98
2024-04-17T23:15:21.205Z,99666.41
2024-04-17T23:17:48.948Z,99669.11
2024-04-17T23:20:17.478Z,99670.67
2024-04-17T23:22:45.919Z,99666.46
2024-04-17T23:25:13.913Z,99666.66
2024-04-17T23:27:41.916Z,99665.54
2024-04-17T23:30:10.036Z,99664.88
2024-04-17T23:32:38.110Z,99663.55
2024-04-17T23:35:06.139Z,99665.71
2024-04-17T23:37:33.936Z,99669.20
2024-04-17T23:40:01.804Z,99666.11
2024-04-17T23:42:29.857Z,99660.73
2024-04-17T23:44:57.896Z,99661.55
2024-04-17T23:47:25.865Z,99657.95
2024-04-17T23:49:53.914Z,99657.36
2024-04-17T23:52:21.913Z,99656.65
2024-04-17T23:54:49.637Z,99656.79
2024-04-17T23:57:17.542Z,99653.67
2024-04-17T23:59:45.469Z,99651.80
